createdAt,value
2022-12-09T00:01:36.097Z,100675.84
2022-12-09T00:04:03.585Z,100685.63
2022-12-09T00:06:31.008Z,100678.69
2022-12-09T00:08:58.497Z,100675.09
2022-12-09T00:11:26.241Z,100674.41
2022-12-09T00:13:55.705Z,100666.38
2022-12-09T00:16:24.093Z,100661.47
2022-12-09T00:18:51.918Z,100662.78
2022-12-09T00:21:25.167Z,100664.69
2022-12-09T00:23:54.131Z,100659.34
2022-12-09T00:26:22.814Z,100659.56
2022-12-09T00:28:50.927Z,100655.88
2022-12-09T00:31:21.556Z,100657.59
2022-12-09T00:33:48.752Z,100654.06
2022-12-09T00:36:19.583Z,100655.41
2022-12-09T00:38:47.445Z,100650.13
2022-12-09T00:41:16.034Z,100650.69
2022-12-09T00:43:43.796Z,100653.34
2022-12-09T00:46:12.622Z,100646.22
2022-12-09T00:48:40.677Z,100648.81
2022-12-09T00:51:10.743Z,100663.69
2022-12-09T00:53:39.118Z,100654.25
2022-12-09T00:56:06.656Z,100671.72
2022-12-09T00:58:34.808Z,100673.44
2022-12-09T01:01:01.949Z,100661.78
2022-12-09T01:03:29.997Z,100682.16
2022-12-09T01:05:57.918Z,100693.56
2022-12-09T01:08:25.205Z,100688.31
2022-12-09T01:10:52.679Z,100677.69
2022-12-09T01:13:20.117Z,100682.03
2022-12-09T01:15:47.845Z,100683.53
2022-12-09T01:18:15.073Z,100683.72
2022-12-09T01:20:42.242Z,100673.28
2022-12-09T01:23:09.392Z,100667.91
2022-12-09T01:25:38.123Z,100666.53
2022-12-09T01:28:05.608Z,100668.19
2022-12-09T01:30:33.082Z,100658.59
2022-12-09T01:33:00.527Z,100648.06
2022-12-09T01:35:28.794Z,100647.16
2022-12-09T01:37:56.241Z,100636.59
2022-12-09T01:40:23.800Z,100628.50
2022-12-09T01:42:51.550Z,100641.91
2022-12-09T01:45:22.985Z,100630.69
2022-12-09T01:48:14.204Z,100628.91
2022-12-09T01:50:44.607Z,100620.91
2022-12-09T01:53:13.366Z,100606.25
2022-12-09T01:55:41.967Z,100597.97
2022-12-09T01:58:09.746Z,100600.00
2022-12-09T02:00:37.345Z,100619.94
2022-12-09T02:03:06.926Z,100610.66
2022-12-09T02:05:35.065Z,100604.41
2022-12-09T02:08:02.812Z,100605.41
2022-12-09T02:10:30.513Z,100594.19
2022-12-09T02:13:15.058Z,100578.16
2022-12-09T02:15:44.484Z,100581.34
2022-12-09T02:18:22.440Z,100590.88
2022-12-09T02:20:56.675Z,100594.38
2022-12-09T02:23:41.905Z,100584.63
2022-12-09T02:26:39.747Z,100579.53
2022-12-09T02:29:26.094Z,100581.34
2022-12-09T02:32:33.020Z,100582.91
2022-12-09T02:35:09.521Z,100568.75
2022-12-09T02:38:07.356Z,100577.63
2022-12-09T02:40:54.327Z,100571.56
2022-12-09T02:43:26.143Z,100582.88
2022-12-09T02:45:57.932Z,100584.69
2022-12-09T02:48:33.158Z,100557.72
2022-12-09T02:51:04.310Z,100551.41
2022-12-09T02:53:34.838Z,100544.38
2022-12-09T02:56:06.412Z,100538.41
2022-12-09T02:58:34.607Z,100531.25
2022-12-09T03:01:02.766Z,100525.94
2022-12-09T03:03:33.959Z,100529.38
2022-12-09T03:06:08.275Z,100519.22
2022-12-09T03:08:38.356Z,100505.75
2022-12-09T03:11:18.720Z,100501.84
2022-12-09T03:14:02.927Z,100498.94
2022-12-09T03:16:34.052Z,100505.97
2022-12-09T03:19:08.868Z,100510.63
2022-12-09T03:21:45.722Z,100509.94
2022-12-09T03:24:18.418Z,100510.44
2022-12-09T03:26:47.590Z,100492.34
2022-12-09T03:29:19.942Z,100493.69
2022-12-09T03:31:48.641Z,100480.28
2022-12-09T03:34:20.024Z,100483.06
2022-12-09T03:36:50.733Z,100494.47
2022-12-09T03:39:22.988Z,100485.03
2022-12-09T03:41:55.184Z,100462.25
2022-12-09T03:44:48.380Z,100458.41
2022-12-09T03:47:16.054Z,100464.94
2022-12-09T03:49:43.515Z,100468.41
2022-12-09T03:52:21.121Z,100472.13
2022-12-09T03:54:55.291Z,100480.91
2022-12-09T03:57:23.900Z,100471.13
2022-12-09T04:00:00.799Z,100445.78
2022-12-09T04:02:29.134Z,100449.41
2022-12-09T04:04:56.547Z,100446.22
2022-12-09T04:07:24.343Z,100440.31
2022-12-09T04:09:51.493Z,100435.97
2022-12-09T04:12:18.866Z,100446.34
2022-12-09T04:14:46.414Z,100431.28
2022-12-09T04:17:13.701Z,100421.00
2022-12-09T04:19:40.943Z,100405.47
2022-12-09T04:22:09.026Z,100403.03
2022-12-09T04:24:36.299Z,100401.00
2022-12-09T04:27:03.680Z,100390.53
2022-12-09T04:29:30.894Z,100388.84
2022-12-09T04:31:58.145Z,100389.81
2022-12-09T04:34:25.853Z,100390.53
2022-12-09T04:36:52.983Z,100384.94
2022-12-09T04:39:20.074Z,100376.69
2022-12-09T04:41:47.157Z,100382.13
2022-12-09T04:44:14.264Z,100378.50
2022-12-09T04:46:42.644Z,100369.06
2022-12-09T04:49:10.155Z,100373.72
2022-12-09T04:51:40.019Z,100367.34
2022-12-09T04:54:11.152Z,100370.91
2022-12-09T04:56:38.373Z,100364.81
2022-12-09T04:59:05.765Z,100357.75
2022-12-09T05:01:33.395Z,100358.56
2022-12-09T05:04:01.264Z,100353.44
2022-12-09T05:06:29.220Z,100360.25
2022-12-09T05:08:57.283Z,100342.16
2022-12-09T05:11:25.221Z,100339.31
2022-12-09T05:13:55.429Z,100335.56
2022-12-09T05:16:23.308Z,100336.38
2022-12-09T05:18:50.820Z,100328.44
2022-12-09T05:21:20.348Z,100324.84
2022-12-09T05:23:48.689Z,100320.22
2022-12-09T05:26:19.315Z,100325.03
2022-12-09T05:28:47.541Z,100322.41
2022-12-09T05:31:19.848Z,100331.84
2022-12-09T05:33:48.214Z,100336.00
2022-12-09T05:36:18.316Z,100332.19
2022-12-09T05:38:45.866Z,100326.00
2022-12-09T05:41:13.484Z,100338.13
2022-12-09T05:43:41.037Z,100336.50
2022-12-09T05:46:08.752Z,100322.28
2022-12-09T05:48:36.436Z,100312.50
2022-12-09T05:51:07.971Z,100310.94
2022-12-09T05:53:36.038Z,100311.47
2022-12-09T05:56:03.969Z,100310.84
2022-12-09T05:58:31.417Z,100307.91
2022-12-09T06:01:07.039Z,100299.56
2022-12-09T06:03:35.709Z,100296.69
2022-12-09T06:06:09.451Z,100294.28
2022-12-09T06:08:37.955Z,100292.16
2022-12-09T06:11:08.753Z,100292.06
2022-12-09T06:13:35.994Z,100286.81
2022-12-09T06:16:05.364Z,100281.03
2022-12-09T06:18:33.130Z,100277.94
2022-12-09T06:21:05.725Z,100277.63
2022-12-09T06:23:36.024Z,100265.03
2022-12-09T06:26:04.952Z,100259.72
2022-12-09T06:28:32.167Z,100247.81
2022-12-09T06:31:00.802Z,100250.84
2022-12-09T06:33:59.048Z,100250.75
2022-12-09T06:36:15.627Z,100239.53
2022-12-09T06:38:43.183Z,100226.50
2022-12-09T06:41:13.031Z,100221.41
2022-12-09T06:43:41.289Z,100226.72
2022-12-09T06:46:16.957Z,100221.22
2022-12-09T06:48:45.358Z,100236.00
2022-12-09T06:51:13.603Z,100249.97
2022-12-09T06:53:41.010Z,100248.03
2022-12-09T06:56:12.683Z,100250.63
2022-12-09T06:58:42.287Z,100248.19
2022-12-09T07:01:15.874Z,100253.84
2022-12-09T07:03:44.939Z,100251.75
2022-12-09T07:06:32.783Z,100254.28
2022-12-09T07:09:05.537Z,100242.88
2022-12-09T07:11:33.570Z,100229.56
2022-12-09T07:14:01.400Z,100215.66
2022-12-09T07:16:29.291Z,100201.31
2022-12-09T07:18:57.349Z,100195.75
2022-12-09T07:21:25.026Z,100186.06
2022-12-09T07:23:52.612Z,100181.13
2022-12-09T07:26:20.859Z,100181.34
2022-12-09T07:28:50.114Z,100185.38
2022-12-09T07:31:22.937Z,100202.66
2022-12-09T07:33:51.764Z,100196.59
2022-12-09T07:36:21.535Z,100191.56
2022-12-09T07:38:55.192Z,100183.59
2022-12-09T07:41:23.742Z,100191.16
2022-12-09T07:43:51.672Z,100200.34
2022-12-09T07:46:20.838Z,100206.78
2022-12-09T07:48:49.233Z,100204.59
2022-12-09T07:51:17.203Z,100192.03
2022-12-09T07:53:45.467Z,100194.88
2022-12-09T07:56:15.727Z,100186.22
2022-12-09T07:58:45.253Z,100178.03
2022-12-09T08:01:16.130Z,100170.69
2022-12-09T08:03:44.502Z,100145.94
2022-12-09T08:06:13.983Z,100145.00
2022-12-09T08:08:42.352Z,100136.34
2022-12-09T08:11:31.047Z,100133.22
2022-12-09T08:14:05.732Z,100133.06
2022-12-09T08:16:36.701Z,100117.91
2022-12-09T08:19:04.452Z,100119.34
2022-12-09T08:21:33.476Z,100125.56
2022-12-09T08:24:03.213Z,100121.63
2022-12-09T08:26:32.270Z,100120.72
2022-12-09T08:29:00.313Z,100111.44
2022-12-09T08:31:28.594Z,100109.41
2022-12-09T08:33:56.850Z,100115.78
2022-12-09T08:36:27.823Z,100106.69
2022-12-09T08:39:00.057Z,100098.50
2022-12-09T08:41:37.830Z,100114.25
2022-12-09T08:44:08.876Z,100115.19
2022-12-09T08:46:38.183Z,100112.97
2022-12-09T08:49:06.527Z,100113.91
2022-12-09T08:51:35.014Z,100112.97
2022-12-09T08:54:03.378Z,100107.56
2022-12-09T08:56:31.351Z,100100.59
2022-12-09T08:58:58.838Z,100100.59
2022-12-09T09:01:35.777Z,100118.69
2022-12-09T09:04:12.500Z,100134.00
2022-12-09T09:06:41.696Z,100142.13
2022-12-09T09:09:10.858Z,100147.31
2022-12-09T09:11:38.509Z,100162.09
2022-12-09T09:14:07.836Z,100149.72
2022-12-09T09:16:37.262Z,100179.13
2022-12-09T09:19:06.002Z,100130.53
2022-12-09T09:21:34.584Z,100138.66
2022-12-09T09:24:02.366Z,100138.25
2022-12-09T09:26:30.283Z,100125.34
2022-12-09T09:28:58.002Z,100097.91
2022-12-09T09:31:26.023Z,100087.63
2022-12-09T09:33:53.932Z,100078.81
2022-12-09T09:36:24.645Z,100070.75
2022-12-09T09:38:54.933Z,100074.00
2022-12-09T09:41:43.611Z,100057.63
2022-12-09T09:44:25.636Z,100054.31
2022-12-09T09:46:55.555Z,100049.13
2022-12-09T09:49:25.709Z,100044.16
2022-12-09T09:51:54.336Z,100027.84
2022-12-09T09:54:21.641Z,100027.94
2022-12-09T09:56:58.748Z,100024.91
2022-12-09T09:59:35.784Z,100019.56
2022-12-09T10:02:12.733Z,100023.22
2022-12-09T10:05:02.278Z,100024.81
2022-12-09T10:07:53.509Z,100043.03
2022-12-09T10:10:47.463Z,100057.56
2022-12-09T10:13:27.592Z,100065.09
2022-12-09T10:16:06.666Z,100061.16
2022-12-09T10:18:50.968Z,100062.81
2022-12-09T10:21:20.256Z,100049.72
2022-12-09T10:23:49.083Z,100054.63
2022-12-09T10:26:25.701Z,100044.31
2022-12-09T10:29:18.152Z,100043.19
2022-12-09T10:31:45.847Z,100051.06
2022-12-09T10:34:14.371Z,100027.59
2022-12-09T10:36:45.311Z,100040.06
2022-12-09T10:39:21.141Z,100046.25
2022-12-09T10:42:13.510Z,100020.47
2022-12-09T10:44:41.138Z,100035.06
2022-12-09T10:47:25.851Z,100002.84
2022-12-09T10:49:54.633Z,100029.88
2022-12-09T10:52:24.287Z,100029.28
2022-12-09T10:54:52.319Z,100024.81
2022-12-09T10:57:19.633Z,100022.84
2022-12-09T11:00:19.135Z,100002.78
2022-12-09T11:02:53.006Z,99980.09
2022-12-09T11:05:20.849Z,99987.06
2022-12-09T11:07:50.336Z,99980.97
2022-12-09T11:10:22.301Z,99960.44
2022-12-09T11:12:56.036Z,99947.63
2022-12-09T11:15:40.541Z,99938.56
2022-12-09T11:18:19.185Z,99944.50
2022-12-09T11:21:01.143Z,99943.06
2022-12-09T11:23:30.806Z,99946.63
2022-12-09T11:26:04.571Z,99950.44
2022-12-09T11:28:33.005Z,99948.56
2022-12-09T11:31:28.874Z,99945.09
2022-12-09T11:34:01.293Z,99958.00
2022-12-09T11:36:35.409Z,99945.25
2022-12-09T11:39:25.480Z,99930.59
2022-12-09T11:42:18.507Z,99919.59
2022-12-09T11:45:33.991Z,99916.19
2022-12-09T11:48:32.531Z,99898.72
2022-12-09T11:50:56.872Z,99900.56
2022-12-09T11:53:31.278Z,99911.75
2022-12-09T11:55:58.288Z,99903.88
2022-12-09T11:58:30.517Z,99896.66
2022-12-09T12:01:11.645Z,99886.06
2022-12-09T12:03:47.829Z,99887.19
2022-12-09T12:06:53.337Z,99873.44
2022-12-09T12:09:26.589Z,99882.28
2022-12-09T12:12:39.601Z,99879.75
2022-12-09T12:15:19.928Z,99886.38
2022-12-09T12:17:55.720Z,99867.63
2022-12-09T12:20:54.101Z,99855.06
2022-12-09T12:23:26.960Z,99868.41
2022-12-09T12:26:08.730Z,99859.94
2022-12-09T12:28:35.762Z,99870.84
2022-12-09T12:31:14.785Z,99880.63
2022-12-09T12:34:26.238Z,99883.25
2022-12-09T12:37:27.225Z,99896.66
2022-12-09T12:40:10.955Z,99906.16
2022-12-09T12:43:33.293Z,99902.69
2022-12-09T12:46:19.338Z,99883.25
2022-12-09T12:49:01.636Z,99870.72
2022-12-09T12:51:34.484Z,99861.63
2022-12-09T12:54:22.217Z,99850.84
2022-12-09T12:57:20.693Z,99849.19
2022-12-09T13:00:12.946Z,99838.91
2022-12-09T13:03:15.652Z,99843.50
2022-12-09T13:05:46.971Z,99870.53
2022-12-09T13:08:21.998Z,99857.75
2022-12-09T13:10:53.527Z,99862.06
2022-12-09T13:13:43.742Z,99849.44
2022-12-09T13:16:29.817Z,99843.88
2022-12-09T13:19:06.622Z,99832.88
2022-12-09T13:21:34.840Z,99817.31
2022-12-09T13:24:24.312Z,99831.97
2022-12-09T13:27:38.190Z,99847.94
2022-12-09T13:30:22.729Z,99853.72
2022-12-09T13:32:52.636Z,99866.81
2022-12-09T13:35:33.926Z,99853.25
2022-12-09T13:38:01.415Z,99836.31
2022-12-09T13:40:38.845Z,99823.56
2022-12-09T13:43:12.729Z,99791.50
2022-12-09T13:45:42.979Z,99813.56
2022-12-09T13:48:16.908Z,99817.59
2022-12-09T13:50:57.433Z,99810.81
2022-12-09T13:53:26.926Z,99806.53
2022-12-09T13:55:58.918Z,99799.06
2022-12-09T13:58:53.758Z,99778.69
2022-12-09T14:01:42.000Z,99788.84
2022-12-09T14:04:17.410Z,99801.34
2022-12-09T14:06:44.465Z,99805.09
2022-12-09T14:09:23.096Z,99796.91
2022-12-09T14:11:55.708Z,99816.59
2022-12-09T14:14:25.559Z,99839.41
2022-12-09T14:16:57.721Z,99825.03
2022-12-09T14:19:24.825Z,99819.94
2022-12-09T14:22:20.057Z,99797.22
2022-12-09T14:24:55.689Z,99788.56
2022-12-09T14:27:22.728Z,99779.97
2022-12-09T14:29:58.954Z,99780.06
2022-12-09T14:32:28.895Z,99793.53
2022-12-09T14:35:11.105Z,99802.13
2022-12-09T14:38:03.003Z,99788.78
2022-12-09T14:40:39.524Z,99797.00
2022-12-09T14:43:27.746Z,99784.91
2022-12-09T14:46:00.778Z,99819.25
2022-12-09T14:48:34.429Z,99822.16
2022-12-09T14:51:10.098Z,99814.94
2022-12-09T14:53:38.162Z,99819.63
2022-12-09T14:56:05.944Z,99797.25
2022-12-09T14:58:33.748Z,99804.69
2022-12-09T15:01:06.541Z,99819.69
2022-12-09T15:03:39.623Z,99813.50
2022-12-09T15:06:17.641Z,99829.00
2022-12-09T15:08:45.714Z,99849.66
2022-12-09T15:11:22.443Z,99842.72
2022-12-09T15:13:52.448Z,99817.63
2022-12-09T15:16:23.909Z,99813.50
2022-12-09T15:18:52.300Z,99821.38
2022-12-09T15:21:29.948Z,99825.94
2022-12-09T15:23:59.301Z,99831.53
2022-12-09T15:26:32.695Z,99812.66
2022-12-09T15:29:01.026Z,99817.44
2022-12-09T15:31:30.669Z,99815.31
2022-12-09T15:34:00.382Z,99801.25
2022-12-09T15:36:32.581Z,99797.50
2022-12-09T15:39:46.109Z,99808.06
2022-12-09T15:42:21.947Z,99799.19
2022-12-09T15:44:54.476Z,99805.06
2022-12-09T15:47:25.525Z,99792.94
2022-12-09T15:50:01.679Z,99795.22
2022-12-09T15:52:33.659Z,99798.38
2022-12-09T15:55:06.774Z,99808.72
2022-12-09T15:57:35.639Z,99807.78
2022-12-09T16:00:04.085Z,99802.84
2022-12-09T16:02:34.592Z,99808.19
2022-12-09T16:05:05.213Z,99799.91
2022-12-09T16:07:35.467Z,99808.28
2022-12-09T16:10:12.421Z,99804.56
2022-12-09T16:12:41.463Z,99810.31
2022-12-09T16:15:11.932Z,99825.75
2022-12-09T16:17:55.230Z,99816.59
2022-12-09T16:20:41.234Z,99819.50
2022-12-09T16:23:21.803Z,99813.91
2022-12-09T16:25:50.211Z,99797.28
2022-12-09T16:28:26.085Z,99817.34
2022-12-09T16:30:58.739Z,99803.19
2022-12-09T16:33:27.415Z,99796.34
2022-12-09T16:36:02.116Z,99822.59
2022-12-09T16:38:31.100Z,99813.38
2022-12-09T16:41:01.633Z,99815.06
2022-12-09T16:43:30.622Z,99818.38
2022-12-09T16:46:14.517Z,99807.09
2022-12-09T16:48:42.524Z,99806.25
2022-12-09T16:51:11.306Z,99815.66
2022-12-09T16:53:45.044Z,99816.53
2022-12-09T16:56:21.649Z,99802.38
2022-12-09T16:58:48.880Z,99808.63
2022-12-09T17:01:18.612Z,99803.09
2022-12-09T17:03:56.170Z,99789.69
2022-12-09T17:06:23.265Z,99795.50
2022-12-09T17:08:50.424Z,99808.94
2022-12-09T17:11:18.783Z,99816.81
2022-12-09T17:13:45.848Z,99801.56
2022-12-09T17:16:13.038Z,99801.81
2022-12-09T17:18:40.365Z,99794.19
2022-12-09T17:21:13.029Z,99809.13
2022-12-09T17:23:41.186Z,99799.66
2022-12-09T17:26:12.148Z,99796.75
2022-12-09T17:28:39.902Z,99802.84
2022-12-09T17:31:19.548Z,99806.25
2022-12-09T17:33:47.301Z,99823.69
2022-12-09T17:36:16.171Z,99844.78
2022-12-09T17:38:43.456Z,99834.47
2022-12-09T17:41:18.802Z,99829.31
2022-12-09T17:43:46.469Z,99837.84
2022-12-09T17:46:13.917Z,99832.00
2022-12-09T17:48:41.914Z,99831.16
2022-12-09T17:51:11.772Z,99835.50
2022-12-09T17:53:40.707Z,99845.13
2022-12-09T17:56:12.147Z,99858.44
2022-12-09T17:58:39.518Z,99856.94
2022-12-09T18:01:16.740Z,99851.06
2022-12-09T18:04:02.850Z,99831.94
2022-12-09T18:06:34.343Z,99842.44
2022-12-09T18:09:07.557Z,99832.28
2022-12-09T18:11:35.701Z,99854.38
2022-12-09T18:14:03.461Z,99860.31
2022-12-09T18:16:30.737Z,99856.25
2022-12-09T18:19:06.193Z,99853.53
2022-12-09T18:21:34.017Z,99836.00
2022-12-09T18:24:01.125Z,99856.31
2022-12-09T18:26:31.975Z,99846.72
2022-12-09T18:29:00.203Z,99843.81
2022-12-09T18:31:27.788Z,99857.34
2022-12-09T18:33:54.909Z,99860.06
2022-12-09T18:36:27.107Z,99851.44
2022-12-09T18:38:54.622Z,99834.56
2022-12-09T18:41:28.929Z,99852.13
2022-12-09T18:43:58.269Z,99858.34
2022-12-09T18:46:28.418Z,99855.00
2022-12-09T18:48:57.768Z,99873.13
2022-12-09T18:51:25.055Z,99875.13
2022-12-09T18:53:52.381Z,99870.50
2022-12-09T18:56:19.670Z,99879.13
2022-12-09T18:59:16.692Z,99871.09
2022-12-09T19:01:35.713Z,99851.94
2022-12-09T19:04:03.952Z,99853.47
2022-12-09T19:06:38.939Z,99856.59
2022-12-09T19:09:12.517Z,99865.97
2022-12-09T19:11:40.639Z,99872.50
2022-12-09T19:14:08.880Z,99864.22
2022-12-09T19:16:36.702Z,99873.72
2022-12-09T19:19:09.525Z,99883.28
2022-12-09T19:21:38.304Z,99872.53
2022-12-09T19:24:06.212Z,99876.41
2022-12-09T19:26:36.401Z,99877.94
2022-12-09T19:29:06.812Z,99877.09
2022-12-09T19:31:39.738Z,99890.13
2022-12-09T19:34:12.811Z,99888.50
2022-12-09T19:36:40.715Z,99877.59
2022-12-09T19:39:09.289Z,99883.72
2022-12-09T19:41:37.628Z,99874.38
2022-12-09T19:44:05.230Z,99879.47
2022-12-09T19:46:33.213Z,99885.06
2022-12-09T19:49:00.888Z,99886.06
2022-12-09T19:51:28.205Z,99891.97
2022-12-09T19:54:00.621Z,99887.41
2022-12-09T19:56:28.201Z,99887.22
2022-12-09T19:58:55.361Z,99881.06
2022-12-09T20:01:30.758Z,99880.56
2022-12-09T20:04:25.492Z,99887.56
2022-12-09T20:06:53.152Z,99870.75
2022-12-09T20:09:24.300Z,99882.06
2022-12-09T20:11:54.818Z,99874.03
2022-12-09T20:14:21.920Z,99866.47
2022-12-09T20:16:49.010Z,99875.31
2022-12-09T20:19:16.230Z,99881.63
2022-12-09T20:21:43.294Z,99872.00
2022-12-09T20:24:10.472Z,99874.03
2022-12-09T20:26:38.270Z,99875.13
2022-12-09T20:29:07.892Z,99860.41
2022-12-09T20:31:37.877Z,99863.34
2022-12-09T20:34:12.211Z,99864.69
2022-12-09T20:36:41.627Z,99868.31
2022-12-09T20:39:14.908Z,99868.84
2022-12-09T20:41:42.705Z,99865.63
2022-12-09T20:44:11.057Z,99879.22
2022-12-09T20:46:39.885Z,99869.16
2022-12-09T20:49:07.026Z,99878.56
2022-12-09T20:51:36.527Z,99877.22
2022-12-09T20:54:05.224Z,99876.13
2022-12-09T20:56:33.569Z,99857.13
2022-12-09T20:59:01.194Z,99858.44
2022-12-09T21:01:31.389Z,99852.28
2022-12-09T21:03:59.998Z,99845.06
2022-12-09T21:06:30.151Z,99850.81
2022-12-09T21:09:01.269Z,99855.63
2022-12-09T21:11:28.553Z,99855.16
2022-12-09T21:14:00.777Z,99855.56
2022-12-09T21:16:32.872Z,99855.38
2022-12-09T21:19:02.069Z,99863.41
2022-12-09T21:21:31.192Z,99864.34
2022-12-09T21:23:59.649Z,99863.94
2022-12-09T21:26:27.151Z,99866.81
2022-12-09T21:28:54.873Z,99868.72
2022-12-09T21:31:24.589Z,99883.91
2022-12-09T21:33:52.981Z,99887.28
2022-12-09T21:36:25.317Z,99884.47
2022-12-09T21:38:53.456Z,99893.09
2022-12-09T21:41:26.183Z,99898.88
2022-12-09T21:43:55.056Z,99893.25
2022-12-09T21:46:25.152Z,99891.72
2022-12-09T21:48:57.234Z,99891.34
2022-12-09T21:51:29.534Z,99895.56
2022-12-09T21:53:57.412Z,99897.72
2022-12-09T21:56:26.947Z,99912.31
2022-12-09T21:58:57.341Z,99916.47
2022-12-09T22:01:29.629Z,99917.38
2022-12-09T22:03:59.794Z,99916.47
2022-12-09T22:06:28.364Z,99928.66
2022-12-09T22:08:57.737Z,99929.97
2022-12-09T22:11:27.943Z,99932.88
2022-12-09T22:14:00.024Z,99931.66
2022-12-09T22:16:30.548Z,99927.94
2022-12-09T22:18:59.778Z,99935.03
2022-12-09T22:21:29.762Z,99939.66
2022-12-09T22:24:00.349Z,99937.97
2022-12-09T22:26:27.723Z,99937.25
2022-12-09T22:28:55.076Z,99923.47
2022-12-09T22:31:27.702Z,99919.59
2022-12-09T22:33:58.514Z,99921.31
2022-12-09T22:36:25.875Z,99917.91
2022-12-09T22:38:53.649Z,99926.03
2022-12-09T22:41:23.445Z,99928.38
2022-12-09T22:43:51.380Z,99926.72
2022-12-09T22:46:21.687Z,99918.84
2022-12-09T22:48:49.143Z,99920.78
2022-12-09T22:51:21.732Z,99933.03
2022-12-09T22:53:51.046Z,99932.31
2022-12-09T22:56:19.058Z,99926.84
2022-12-09T22:58:46.454Z,99923.53
2022-12-09T23:01:19.153Z,99911.81
2022-12-09T23:03:46.637Z,99905.50
2022-12-09T23:06:14.926Z,99907.81
2022-12-09T23:08:43.881Z,99900.50
2022-12-09T23:11:23.957Z,99902.03
2022-12-09T23:13:51.610Z,99892.03
2022-12-09T23:16:22.634Z,99885.31
2022-12-09T23:18:51.215Z,99885.47
2022-12-09T23:21:20.035Z,99891.41
2022-12-09T23:23:47.549Z,99882.13
2022-12-09T23:26:17.776Z,99868.56
2022-12-09T23:28:52.873Z,99884.44
2022-12-09T23:31:23.528Z,99886.63
2022-12-09T23:33:53.101Z,99882.38
2022-12-09T23:36:26.077Z,99882.69
2022-12-09T23:38:54.148Z,99891.47
2022-12-09T23:41:22.688Z,99890.00
2022-12-09T23:43:50.822Z,99884.91
2022-12-09T23:46:23.437Z,99886.75
2022-12-09T23:48:51.965Z,99883.41
2022-12-09T23:51:24.783Z,99887.19
2022-12-09T23:53:54.848Z,99874.84
2022-12-09T23:56:25.549Z,99867.88
2022-12-09T23:58:58.736Z,99890.28
